createdAt,value
2023-12-22T00:00:58.708Z,672.00
2023-12-22T00:01:58.764Z,677.00
2023-12-22T00:02:58.741Z,668.00
2023-12-22T00:03:58.815Z,673.00
2023-12-22T00:04:58.773Z,678.00
2023-12-22T00:05:58.781Z,674.00
2023-12-22T00:06:58.762Z,671.00
2023-12-22T00:07:58.868Z,668.00
2023-12-22T00:08:58.878Z,669.00
2023-12-22T00:09:58.805Z,663.00
2023-12-22T00:10:58.855Z,676.00
2023-12-22T00:11:58.893Z,681.00
2023-12-22T00:12:58.891Z,669.00
2023-12-22T00:13:59.015Z,673.00
2023-12-22T00:14:59.047Z,677.00
2023-12-22T00:15:58.948Z,674.00
2023-12-22T00:16:59.008Z,681.00
2023-12-22T00:17:59.055Z,676.00
2023-12-22T00:18:59.083Z,666.00
2023-12-22T00:19:59.113Z,670.00
2023-12-22T00:20:59.091Z,677.00
2023-12-22T00:21:59.256Z,680.00
2023-12-22T00:22:59.240Z,671.00
2023-12-22T00:23:59.191Z,671.00
2023-12-22T00:24:59.289Z,674.00
2023-12-22T00:25:59.251Z,674.00
2023-12-22T00:26:59.302Z,671.00
2023-12-22T00:27:59.315Z,666.00
2023-12-22T00:28:59.376Z,672.00
2023-12-22T00:29:59.364Z,670.00
2023-12-22T00:30:59.355Z,668.00
2023-12-22T00:31:59.385Z,670.00
2023-12-22T00:32:59.474Z,667.00
2023-12-22T00:33:59.787Z,674.00
2023-12-22T00:34:59.586Z,672.00
2023-12-22T00:35:59.493Z,665.00
2023-12-22T00:36:59.501Z,670.00
2023-12-22T00:37:59.535Z,670.00
2023-12-22T00:38:59.608Z,663.00
2023-12-22T00:39:59.591Z,670.00
2023-12-22T00:40:59.647Z,668.00
2023-12-22T00:41:59.635Z,668.00
2023-12-22T00:42:59.644Z,673.00
2023-12-22T00:43:59.744Z,669.00
2023-12-22T00:44:59.728Z,668.00
2023-12-22T00:45:59.738Z,666.00
2023-12-22T00:47:00.075Z,665.00
2023-12-22T00:47:59.808Z,665.00
2023-12-22T00:48:59.938Z,667.00
2023-12-22T00:49:59.927Z,662.00
2023-12-22T00:50:59.913Z,663.00
2023-12-22T00:51:59.997Z,667.00
2023-12-22T00:52:59.959Z,665.00
2023-12-22T00:53:59.992Z,664.00
2023-12-22T00:55:00.012Z,670.00
2023-12-22T00:56:00.140Z,672.00
2023-12-22T00:57:00.063Z,676.00
2023-12-22T00:58:00.119Z,671.00
2023-12-22T00:59:05.462Z,685.00
2023-12-22T01:00:01.163Z,685.00
2023-12-22T01:01:00.252Z,685.00
2023-12-22T01:02:00.366Z,682.00
2023-12-22T01:03:00.297Z,679.00
2023-12-22T01:04:00.217Z,683.00
2023-12-22T01:05:00.460Z,676.00
2023-12-22T01:06:00.397Z,670.00
2023-12-22T01:07:00.208Z,679.00
2023-12-22T01:08:00.387Z,682.00
2023-12-22T01:09:00.203Z,678.00
2023-12-22T01:10:00.252Z,679.00
2023-12-22T01:11:00.200Z,666.00
2023-12-22T01:12:00.313Z,671.00
2023-12-22T01:13:00.257Z,676.00
2023-12-22T01:14:00.314Z,680.00
2023-12-22T01:15:00.206Z,684.00
2023-12-22T01:16:00.187Z,674.00
2023-12-22T01:17:00.305Z,676.00
2023-12-22T01:18:00.325Z,676.00
2023-12-22T01:19:00.395Z,673.00
2023-12-22T01:20:00.372Z,674.00
2023-12-22T01:21:00.285Z,680.00
2023-12-22T01:22:00.324Z,677.00
2023-12-22T01:23:00.376Z,675.00
2023-12-22T01:24:00.434Z,678.00
2023-12-22T01:25:00.399Z,680.00
2023-12-22T01:26:00.466Z,678.00
2023-12-22T01:27:00.462Z,689.00
2023-12-22T01:28:02.266Z,680.00
2023-12-22T01:29:00.521Z,686.00
2023-12-22T01:30:00.553Z,683.00
2023-12-22T01:31:00.501Z,687.00
2023-12-22T01:32:00.528Z,682.00
2023-12-22T01:33:00.658Z,675.00
2023-12-22T01:34:01.304Z,677.00
2023-12-22T01:35:00.513Z,684.00
2023-12-22T01:36:00.595Z,685.00
2023-12-22T01:37:00.512Z,681.00
2023-12-22T01:38:00.524Z,681.00
2023-12-22T01:39:00.531Z,690.00
2023-12-22T01:40:00.516Z,677.00
2023-12-22T01:41:00.574Z,686.00
2023-12-22T01:42:00.555Z,678.00
2023-12-22T01:43:00.548Z,678.00
2023-12-22T01:44:00.569Z,677.00
2023-12-22T01:45:00.548Z,674.00
2023-12-22T01:46:00.487Z,676.00
2023-12-22T01:47:00.537Z,674.00
2023-12-22T01:48:00.646Z,673.00
2023-12-22T01:49:00.528Z,684.00
2023-12-22T01:50:00.687Z,676.00
2023-12-22T01:51:00.497Z,681.00
2023-12-22T01:52:00.532Z,686.00
2023-12-22T01:53:00.540Z,689.00
2023-12-22T01:54:00.510Z,692.00
2023-12-22T01:55:00.519Z,687.00
2023-12-22T01:56:00.612Z,686.00
2023-12-22T01:57:00.535Z,681.00
2023-12-22T01:58:00.553Z,685.00
2023-12-22T01:59:00.591Z,678.00
2023-12-22T02:00:00.488Z,679.00
2023-12-22T02:01:00.534Z,686.00
2023-12-22T02:02:00.610Z,691.00
2023-12-22T02:03:00.583Z,681.00
2023-12-22T02:04:00.683Z,686.00
2023-12-22T02:05:01.332Z,687.00
2023-12-22T02:06:00.652Z,688.00
2023-12-22T02:07:00.527Z,684.00
2023-12-22T02:08:00.644Z,688.00
2023-12-22T02:09:00.651Z,688.00
2023-12-22T02:10:00.582Z,679.00
2023-12-22T02:11:00.606Z,681.00
2023-12-22T02:12:00.543Z,684.00
2023-12-22T02:13:00.528Z,682.00
2023-12-22T02:14:00.791Z,685.00
2023-12-22T02:15:00.551Z,692.00
2023-12-22T02:16:00.565Z,693.00
2023-12-22T02:17:00.617Z,696.00
2023-12-22T02:18:00.642Z,698.00
2023-12-22T02:19:00.599Z,696.00
2023-12-22T02:20:00.570Z,687.00
2023-12-22T02:21:00.507Z,691.00
2023-12-22T02:22:00.595Z,691.00
2023-12-22T02:23:00.549Z,686.00
2023-12-22T02:24:00.557Z,692.00
2023-12-22T02:25:00.542Z,685.00
2023-12-22T02:26:00.582Z,694.00
2023-12-22T02:27:00.520Z,687.00
2023-12-22T02:28:00.554Z,698.00
2023-12-22T02:29:00.651Z,683.00
2023-12-22T02:30:00.572Z,691.00
2023-12-22T02:31:00.659Z,692.00
2023-12-22T02:32:00.740Z,688.00
2023-12-22T02:33:00.687Z,689.00
2023-12-22T02:34:00.739Z,693.00
2023-12-22T02:35:00.794Z,691.00
2023-12-22T02:36:00.823Z,680.00
2023-12-22T02:37:00.799Z,694.00
2023-12-22T02:38:00.898Z,685.00
2023-12-22T02:39:00.923Z,693.00
2023-12-22T02:40:00.885Z,683.00
2023-12-22T02:41:01.102Z,684.00
2023-12-22T02:42:00.928Z,683.00
2023-12-22T02:43:00.982Z,680.00
2023-12-22T02:44:01.018Z,682.00
2023-12-22T02:45:01.064Z,681.00
2023-12-22T02:46:01.000Z,676.00
2023-12-22T02:47:01.069Z,679.00
2023-12-22T02:48:01.287Z,685.00
2023-12-22T02:49:01.241Z,681.00
2023-12-22T02:50:01.274Z,677.00
2023-12-22T02:51:01.208Z,681.00
2023-12-22T02:52:01.303Z,687.00
2023-12-22T02:53:01.286Z,682.00
2023-12-22T02:54:01.302Z,676.00
2023-12-22T02:55:01.312Z,676.00
2023-12-22T02:56:01.464Z,674.00
2023-12-22T02:57:01.352Z,673.00
2023-12-22T02:58:01.390Z,674.00
2023-12-22T02:59:01.517Z,681.00
2023-12-22T03:00:01.448Z,678.00
2023-12-22T03:01:01.557Z,686.00
2023-12-22T03:02:01.598Z,677.00
2023-12-22T03:03:01.585Z,681.00
2023-12-22T03:04:01.654Z,680.00
2023-12-22T03:05:01.676Z,681.00
2023-12-22T03:06:01.725Z,676.00
2023-12-22T03:07:01.714Z,670.00
2023-12-22T03:08:01.851Z,669.00
2023-12-22T03:09:01.769Z,684.00
2023-12-22T03:10:01.802Z,666.00
2023-12-22T03:11:01.869Z,666.00
2023-12-22T03:12:01.833Z,671.00
2023-12-22T03:13:01.951Z,668.00
2023-12-22T03:14:01.973Z,676.00
2023-12-22T03:15:01.946Z,673.00
2023-12-22T03:16:02.000Z,681.00
2023-12-22T03:17:02.027Z,677.00
2023-12-22T03:18:02.179Z,672.00
2023-12-22T03:19:02.152Z,666.00
2023-12-22T03:20:02.267Z,675.00
2023-12-22T03:21:02.176Z,669.00
2023-12-22T03:22:02.167Z,666.00
2023-12-22T03:23:02.292Z,669.00
2023-12-22T03:24:02.227Z,669.00
2023-12-22T03:25:02.287Z,673.00
2023-12-22T03:26:02.423Z,670.00
2023-12-22T03:27:02.376Z,665.00
2023-12-22T03:28:02.403Z,665.00
2023-12-22T03:29:02.498Z,665.00
2023-12-22T03:30:02.557Z,668.00
2023-12-22T03:31:02.511Z,665.00
2023-12-22T03:32:02.580Z,670.00
2023-12-22T03:33:02.697Z,674.00
2023-12-22T03:34:02.899Z,669.00
2023-12-22T03:35:02.760Z,670.00
2023-12-22T03:36:02.693Z,676.00
2023-12-22T03:37:02.753Z,682.00
2023-12-22T03:38:02.748Z,678.00
2023-12-22T03:39:02.789Z,668.00
2023-12-22T03:40:02.974Z,672.00
2023-12-22T03:41:03.040Z,670.00
2023-12-22T03:42:02.880Z,679.00
2023-12-22T03:43:02.918Z,678.00
2023-12-22T03:44:02.973Z,675.00
2023-12-22T03:45:02.998Z,676.00
2023-12-22T03:46:03.027Z,675.00
2023-12-22T03:47:03.043Z,674.00
2023-12-22T03:48:03.071Z,679.00
2023-12-22T03:49:03.190Z,687.00
2023-12-22T03:50:03.206Z,674.00
2023-12-22T03:51:03.172Z,679.00
2023-12-22T03:52:03.222Z,666.00
2023-12-22T03:53:03.311Z,667.00
2023-12-22T03:54:03.267Z,672.00
2023-12-22T03:55:03.403Z,668.00
2023-12-22T03:56:03.409Z,671.00
2023-12-22T03:57:03.384Z,676.00
2023-12-22T03:58:03.425Z,677.00
2023-12-22T03:59:03.456Z,680.00
2023-12-22T04:00:03.434Z,675.00
2023-12-22T04:01:03.688Z,677.00
2023-12-22T04:02:03.637Z,675.00
2023-12-22T04:03:03.710Z,676.00
2023-12-22T04:04:03.617Z,677.00
2023-12-22T04:05:03.694Z,668.00
2023-12-22T04:06:04.347Z,680.00
2023-12-22T04:07:03.763Z,679.00
2023-12-22T04:08:03.883Z,670.00
2023-12-22T04:09:03.819Z,676.00
2023-12-22T04:10:03.830Z,666.00
2023-12-22T04:11:03.912Z,669.00
2023-12-22T04:12:03.932Z,673.00
2023-12-22T04:13:04.019Z,672.00
2023-12-22T04:14:04.025Z,667.00
2023-12-22T04:15:04.036Z,665.00
2023-12-22T04:16:04.080Z,675.00
2023-12-22T04:17:04.461Z,680.00
2023-12-22T04:18:04.236Z,669.00
2023-12-22T04:19:04.224Z,678.00
2023-12-22T04:20:04.295Z,679.00
2023-12-22T04:21:04.217Z,674.00
2023-12-22T04:22:04.258Z,684.00
2023-12-22T04:23:04.293Z,674.00
2023-12-22T04:24:04.396Z,681.00
2023-12-22T04:25:04.406Z,686.00
2023-12-22T04:26:11.598Z,600.00
2023-12-22T04:27:11.657Z,600.00
2023-12-22T04:28:11.702Z,600.00
2023-12-22T04:29:11.734Z,600.00
2023-12-22T04:30:11.652Z,600.00
2023-12-22T04:31:18.896Z,600.00
2023-12-22T04:32:18.901Z,600.00
2023-12-22T04:33:19.051Z,600.00
2023-12-22T04:34:19.102Z,600.00
2023-12-22T04:35:18.918Z,600.00
2023-12-22T04:36:18.923Z,600.00
2023-12-22T04:37:18.995Z,601.00
2023-12-22T04:38:18.877Z,602.00
2023-12-22T04:39:18.945Z,600.00
2023-12-22T04:40:18.933Z,602.00
2023-12-22T04:41:18.948Z,601.00
2023-12-22T04:42:18.896Z,604.00
2023-12-22T04:43:19.002Z,605.00
2023-12-22T04:44:18.965Z,601.00
2023-12-22T04:45:18.924Z,604.00
2023-12-22T04:46:18.957Z,601.00
2023-12-22T04:47:18.866Z,603.00
2023-12-22T04:48:19.055Z,605.00
2023-12-22T04:49:18.977Z,604.00
2023-12-22T04:50:18.907Z,605.00
2023-12-22T04:51:18.945Z,603.00
2023-12-22T04:52:18.877Z,605.00
2023-12-22T04:53:19.091Z,600.00
2023-12-22T04:54:18.938Z,606.00
2023-12-22T04:55:19.029Z,603.00
2023-12-22T04:56:18.939Z,602.00
2023-12-22T04:57:19.209Z,604.00
2023-12-22T04:58:18.922Z,606.00
2023-12-22T04:59:18.973Z,604.00
2023-12-22T05:00:18.970Z,601.00
2023-12-22T05:01:19.020Z,605.00
2023-12-22T05:02:18.876Z,606.00
2023-12-22T05:03:18.977Z,602.00
2023-12-22T05:04:18.977Z,600.00
2023-12-22T05:05:18.948Z,603.00
2023-12-22T05:06:18.921Z,602.00
2023-12-22T05:07:18.963Z,600.00
2023-12-22T05:08:18.910Z,601.00
2023-12-22T05:09:18.980Z,602.00
2023-12-22T05:10:19.060Z,603.00
2023-12-22T05:11:19.049Z,601.00
2023-12-22T05:12:19.120Z,600.00
2023-12-22T05:13:19.132Z,601.00
2023-12-22T05:14:19.205Z,600.00
2023-12-22T05:15:19.173Z,603.00
2023-12-22T05:16:19.368Z,600.00
2023-12-22T05:17:19.305Z,602.00
2023-12-22T05:18:19.523Z,599.00
2023-12-22T05:19:19.404Z,603.00
2023-12-22T05:20:19.490Z,602.00
2023-12-22T05:21:19.467Z,600.00
2023-12-22T05:22:19.584Z,600.00
2023-12-22T05:23:19.544Z,603.00
2023-12-22T05:24:19.577Z,602.00
2023-12-22T05:25:19.712Z,600.00
2023-12-22T05:26:19.716Z,604.00
2023-12-22T05:27:19.778Z,600.00
2023-12-22T05:28:19.875Z,603.00
2023-12-22T05:29:19.937Z,599.00
2023-12-22T05:30:19.952Z,602.00
2023-12-22T05:31:19.998Z,600.00
2023-12-22T05:32:20.066Z,600.00
2023-12-22T05:33:20.048Z,600.00
2023-12-22T05:34:20.145Z,600.00
2023-12-22T05:35:20.377Z,604.00
2023-12-22T05:36:20.211Z,606.00
2023-12-22T05:37:20.260Z,604.00
2023-12-22T05:38:20.318Z,605.00
2023-12-22T05:39:20.355Z,605.00
2023-12-22T05:40:20.488Z,606.00
2023-12-22T05:41:20.509Z,607.00
2023-12-22T05:42:20.482Z,607.00
2023-12-22T05:43:20.583Z,609.00
2023-12-22T05:44:20.588Z,610.00
2023-12-22T05:45:20.613Z,614.00
2023-12-22T05:46:20.691Z,617.00
2023-12-22T05:47:20.768Z,616.00
2023-12-22T05:48:20.882Z,624.00
2023-12-22T05:49:20.942Z,622.00
2023-12-22T05:50:20.935Z,627.00
2023-12-22T05:51:20.912Z,629.00
2023-12-22T05:52:21.017Z,635.00
2023-12-22T05:53:20.979Z,635.00
2023-12-22T05:54:21.011Z,639.00
2023-12-22T05:55:21.122Z,641.00
2023-12-22T05:56:21.103Z,646.00
2023-12-22T05:57:21.138Z,650.00
2023-12-22T05:58:21.223Z,651.00
2023-12-22T05:59:21.236Z,656.00
2023-12-22T06:00:21.242Z,657.00
2023-12-22T06:01:21.319Z,653.00
2023-12-22T06:02:21.398Z,659.00
2023-12-22T06:03:21.377Z,665.00
2023-12-22T06:04:21.557Z,679.00
2023-12-22T06:05:21.538Z,677.00
2023-12-22T06:06:21.532Z,678.00
2023-12-22T06:07:21.647Z,698.00
2023-12-22T06:08:21.600Z,699.00
2023-12-22T06:09:21.755Z,710.00
2023-12-22T06:10:21.682Z,720.00
2023-12-22T06:11:21.718Z,729.00
2023-12-22T06:12:21.756Z,724.00
2023-12-22T06:13:21.826Z,719.00
2023-12-22T06:14:21.889Z,738.00
2023-12-22T06:15:21.850Z,752.00
2023-12-22T06:16:21.942Z,745.00
2023-12-22T06:17:21.961Z,761.00
2023-12-22T06:18:22.184Z,763.00
2023-12-22T06:19:22.266Z,756.00
2023-12-22T06:20:22.073Z,756.00
2023-12-22T06:21:22.237Z,773.00
2023-12-22T06:22:22.125Z,768.00
2023-12-22T06:23:22.261Z,770.00
2023-12-22T06:24:22.227Z,771.00
2023-12-22T06:25:22.262Z,771.00
2023-12-22T06:26:22.227Z,769.00
2023-12-22T06:27:22.287Z,778.00
2023-12-22T06:28:22.373Z,786.00
2023-12-22T06:29:22.378Z,778.00
2023-12-22T06:30:22.378Z,793.00
2023-12-22T06:31:22.625Z,796.00
2023-12-22T06:32:23.778Z,796.00
2023-12-22T06:33:22.659Z,799.00
2023-12-22T06:34:22.613Z,805.00
2023-12-22T06:35:22.641Z,819.00
2023-12-22T06:36:22.746Z,811.00
2023-12-22T06:37:22.788Z,810.00
2023-12-22T06:38:22.834Z,805.00
2023-12-22T06:39:22.851Z,793.00
2023-12-22T06:40:22.974Z,791.00
2023-12-22T06:41:26.747Z,790.00
2023-12-22T06:42:22.875Z,772.00
2023-12-22T06:43:23.060Z,721.00
2023-12-22T06:44:22.899Z,683.00
2023-12-22T06:45:22.953Z,656.00
2023-12-22T06:46:23.039Z,655.00
2023-12-22T06:47:23.110Z,645.00
2023-12-22T06:48:23.293Z,642.00
2023-12-22T06:49:23.226Z,628.00
2023-12-22T06:50:23.342Z,622.00
2023-12-22T06:51:23.356Z,604.00
2023-12-22T06:52:23.228Z,600.00
2023-12-22T06:53:26.218Z,600.00
2023-12-22T06:54:23.217Z,601.00
2023-12-22T06:55:23.445Z,601.00
2023-12-22T06:56:23.279Z,602.00
2023-12-22T06:57:24.647Z,600.00
2023-12-22T06:58:23.659Z,592.00
2023-12-22T06:59:24.378Z,591.00
2023-12-22T07:00:23.478Z,583.00
2023-12-22T07:01:23.568Z,591.00
2023-12-22T07:02:25.369Z,589.00
2023-12-22T07:03:24.103Z,607.00
2023-12-22T07:04:23.852Z,611.00
2023-12-22T07:05:24.081Z,620.00
2023-12-22T07:06:23.889Z,621.00
2023-12-22T07:07:24.019Z,627.00
2023-12-22T07:08:24.170Z,636.00
2023-12-22T07:09:23.985Z,651.00
2023-12-22T07:10:25.286Z,662.00
2023-12-22T07:11:31.333Z,665.00
2023-12-22T07:12:25.088Z,666.00
2023-12-22T07:13:26.800Z,667.00
2023-12-22T07:14:24.620Z,679.00
2023-12-22T07:15:24.628Z,697.00
2023-12-22T07:16:24.222Z,735.00
2023-12-22T07:17:29.026Z,743.00
2023-12-22T07:18:25.169Z,743.00
2023-12-22T07:19:24.083Z,746.00
2023-12-22T07:20:26.558Z,753.00
2023-12-22T07:21:26.317Z,764.00
2023-12-22T07:22:24.632Z,789.00
2023-12-22T07:23:24.586Z,798.00
2023-12-22T07:24:24.447Z,788.00
2023-12-22T07:25:24.680Z,809.00
2023-12-22T07:26:25.863Z,830.00
2023-12-22T07:27:28.630Z,821.00
2023-12-22T07:28:27.648Z,819.00
2023-12-22T07:29:25.149Z,821.00
2023-12-22T07:30:26.079Z,824.00
2023-12-22T07:31:27.036Z,831.00
2023-12-22T07:32:24.261Z,822.00
2023-12-22T07:33:24.670Z,825.00
2023-12-22T07:34:24.445Z,831.00
2023-12-22T07:35:24.296Z,820.00
2023-12-22T07:36:24.654Z,797.00
2023-12-22T07:37:24.313Z,778.00
2023-12-22T07:38:24.880Z,768.00
2023-12-22T07:39:24.302Z,759.00
2023-12-22T07:40:25.226Z,752.00
2023-12-22T07:41:28.304Z,756.00
2023-12-22T07:42:28.666Z,757.00
2023-12-22T07:43:25.276Z,757.00
2023-12-22T07:44:24.653Z,764.00
2023-12-22T07:45:24.418Z,782.00
2023-12-22T07:46:29.642Z,820.00
2023-12-22T07:47:26.392Z,760.00
2023-12-22T07:48:25.965Z,773.00
2023-12-22T07:49:26.867Z,761.00
2023-12-22T07:50:25.280Z,776.00
2023-12-22T07:51:24.244Z,761.00
2023-12-22T07:52:25.084Z,778.00
2023-12-22T07:53:24.851Z,807.00
2023-12-22T07:54:25.204Z,854.00
2023-12-22T07:55:24.808Z,907.00
2023-12-22T07:56:26.422Z,904.00
2023-12-22T07:57:24.277Z,914.00
2023-12-22T07:58:24.276Z,929.00
2023-12-22T07:59:30.507Z,939.00
2023-12-22T08:00:25.290Z,939.00
2023-12-22T08:01:24.833Z,941.00
2023-12-22T08:02:24.375Z,944.00
2023-12-22T08:03:24.278Z,944.00
2023-12-22T08:04:27.430Z,957.00
2023-12-22T08:05:24.591Z,974.00
2023-12-22T08:06:24.325Z,987.00
2023-12-22T08:07:24.295Z,995.00
2023-12-22T08:08:24.376Z,984.00
2023-12-22T08:09:24.401Z,984.00
2023-12-22T08:10:24.780Z,982.00
2023-12-22T08:11:24.274Z,987.00
2023-12-22T08:12:24.373Z,996.00
2023-12-22T08:13:24.540Z,990.00
2023-12-22T08:15:36.423Z,600.00
2023-12-22T08:16:33.193Z,600.00
2023-12-22T08:17:31.801Z,600.00
2023-12-22T08:18:33.837Z,600.00
2023-12-22T08:19:32.689Z,600.00
2023-12-22T08:20:34.474Z,600.00
2023-12-22T08:21:39.487Z,600.00
2023-12-22T08:22:33.831Z,600.00
2023-12-22T08:23:32.433Z,600.00
2023-12-22T08:24:32.032Z,600.00
2023-12-22T08:25:32.527Z,600.00
2023-12-22T08:26:32.163Z,600.00
2023-12-22T08:27:32.077Z,600.00
2023-12-22T08:28:32.137Z,603.00
2023-12-22T08:29:35.698Z,603.00
2023-12-22T08:30:35.923Z,603.00
2023-12-22T08:31:31.967Z,603.00
2023-12-22T08:32:31.993Z,604.00
2023-12-22T08:33:32.195Z,605.00
2023-12-22T08:34:31.967Z,600.00
2023-12-22T08:35:31.962Z,598.00
2023-12-22T08:36:32.078Z,603.00
2023-12-22T08:37:31.928Z,600.00
2023-12-22T08:38:32.322Z,600.00
2023-12-22T08:39:32.082Z,606.00
2023-12-22T08:40:32.177Z,607.00
2023-12-22T08:41:31.860Z,600.00
2023-12-22T08:42:31.878Z,600.00
2023-12-22T08:43:32.210Z,602.00
2023-12-22T08:44:31.944Z,601.00
2023-12-22T08:45:32.034Z,600.00
2023-12-22T08:46:32.107Z,604.00
2023-12-22T08:47:32.159Z,605.00
2023-12-22T08:48:32.401Z,606.00
2023-12-22T08:49:32.236Z,608.00
2023-12-22T08:50:32.350Z,600.00
2023-12-22T08:51:32.280Z,600.00
2023-12-22T08:52:32.500Z,601.00
2023-12-22T08:53:32.508Z,597.00
2023-12-22T08:54:32.610Z,599.00
2023-12-22T08:55:32.482Z,600.00
2023-12-22T08:56:32.604Z,600.00
2023-12-22T08:57:32.518Z,600.00
2023-12-22T08:58:32.639Z,600.00
2023-12-22T08:59:33.643Z,599.00
2023-12-22T09:00:32.760Z,601.00
2023-12-22T09:01:32.742Z,600.00
2023-12-22T09:02:33.033Z,603.00
2023-12-22T09:03:32.822Z,600.00
2023-12-22T09:04:33.293Z,604.00
2023-12-22T09:05:32.939Z,604.00
2023-12-22T09:06:32.858Z,608.00
2023-12-22T09:07:33.126Z,607.00
2023-12-22T09:08:33.034Z,619.00
2023-12-22T09:09:33.107Z,616.00
2023-12-22T09:10:33.797Z,623.00
2023-12-22T09:11:33.212Z,629.00
2023-12-22T09:12:33.321Z,629.00
2023-12-22T09:13:33.252Z,633.00
2023-12-22T09:14:33.276Z,635.00
2023-12-22T09:15:33.669Z,640.00
2023-12-22T09:16:33.481Z,643.00
2023-12-22T09:17:33.510Z,645.00
2023-12-22T09:18:33.468Z,645.00
2023-12-22T09:19:33.470Z,651.00
2023-12-22T09:20:33.588Z,652.00
2023-12-22T09:21:33.437Z,652.00
2023-12-22T09:22:33.513Z,652.00
2023-12-22T09:23:33.490Z,659.00
2023-12-22T09:24:34.116Z,662.00
2023-12-22T09:25:33.749Z,669.00
2023-12-22T09:26:33.635Z,664.00
2023-12-22T09:27:33.649Z,668.00
2023-12-22T09:28:33.672Z,669.00
2023-12-22T09:29:33.731Z,670.00
2023-12-22T09:30:34.146Z,676.00
2023-12-22T09:31:33.664Z,672.00
2023-12-22T09:32:33.737Z,684.00
2023-12-22T09:33:33.785Z,684.00
2023-12-22T09:34:33.673Z,685.00
2023-12-22T09:35:33.734Z,696.00
2023-12-22T09:36:33.752Z,690.00
2023-12-22T09:37:35.051Z,705.00
2023-12-22T09:38:33.794Z,700.00
2023-12-22T09:39:34.721Z,705.00
2023-12-22T09:40:33.884Z,718.00
2023-12-22T09:41:33.786Z,730.00
2023-12-22T09:42:33.865Z,722.00
2023-12-22T09:43:33.773Z,727.00
2023-12-22T09:44:33.783Z,728.00
2023-12-22T09:45:33.845Z,731.00
2023-12-22T09:46:34.010Z,730.00
2023-12-22T09:47:33.929Z,729.00
2023-12-22T09:48:34.099Z,721.00
2023-12-22T09:49:34.043Z,725.00
2023-12-22T09:50:33.977Z,742.00
2023-12-22T09:51:34.114Z,736.00
2023-12-22T09:52:34.189Z,746.00
2023-12-22T09:53:34.113Z,743.00
2023-12-22T09:54:34.166Z,753.00
2023-12-22T09:55:34.260Z,759.00
2023-12-22T09:56:34.237Z,746.00
2023-12-22T09:57:34.589Z,742.00
2023-12-22T09:58:34.424Z,755.00
2023-12-22T09:59:34.662Z,752.00
2023-12-22T10:00:34.544Z,751.00
2023-12-22T10:01:34.614Z,752.00
2023-12-22T10:02:34.727Z,752.00
2023-12-22T10:03:34.710Z,748.00
2023-12-22T10:04:34.888Z,737.00
2023-12-22T10:05:34.972Z,738.00
2023-12-22T10:06:35.017Z,751.00
2023-12-22T10:07:35.165Z,734.00
2023-12-22T10:08:35.071Z,744.00
2023-12-22T10:09:35.183Z,770.00
2023-12-22T10:10:36.333Z,833.00
2023-12-22T10:11:35.271Z,857.00
2023-12-22T10:12:35.343Z,895.00
2023-12-22T10:13:35.437Z,923.00
2023-12-22T10:14:37.834Z,933.00
2023-12-22T10:15:36.126Z,934.00
2023-12-22T10:16:35.645Z,938.00
2023-12-22T10:17:35.585Z,948.00
2023-12-22T10:18:35.617Z,965.00
2023-12-22T10:19:35.761Z,985.00
2023-12-22T10:20:35.675Z,979.00
2023-12-22T10:21:36.116Z,994.00
2023-12-22T10:22:35.613Z,993.00
2023-12-22T10:23:35.559Z,981.00
2023-12-22T10:24:35.454Z,946.00
2023-12-22T10:25:35.789Z,909.00
2023-12-22T10:26:35.458Z,871.00
2023-12-22T10:27:35.484Z,837.00
2023-12-22T10:28:35.646Z,795.00
2023-12-22T10:29:35.488Z,754.00
2023-12-22T10:30:35.579Z,717.00
2023-12-22T10:31:35.551Z,696.00
2023-12-22T10:32:35.528Z,678.00
2023-12-22T10:33:35.571Z,691.00
2023-12-22T10:34:35.485Z,703.00
2023-12-22T10:35:35.521Z,730.00
2023-12-22T10:36:35.450Z,770.00
2023-12-22T10:37:35.679Z,795.00
2023-12-22T10:38:35.464Z,820.00
2023-12-22T10:39:35.478Z,842.00
2023-12-22T10:40:35.703Z,846.00
2023-12-22T10:41:35.515Z,866.00
2023-12-22T10:42:35.487Z,889.00
2023-12-22T10:43:35.544Z,892.00
2023-12-22T10:44:35.445Z,909.00
2023-12-22T10:45:35.496Z,939.00
2023-12-22T10:46:35.517Z,980.00
2023-12-22T10:47:35.617Z,1029.00
2023-12-22T10:48:35.559Z,1055.00
2023-12-22T10:49:35.704Z,1078.00
2023-12-22T10:50:35.596Z,1107.00
2023-12-22T10:51:35.574Z,1116.00
2023-12-22T10:52:35.603Z,1086.00
2023-12-22T10:53:35.548Z,1073.00
2023-12-22T10:54:35.486Z,1075.00
2023-12-22T10:55:35.617Z,1068.00
2023-12-22T10:56:35.481Z,1057.00
2023-12-22T10:57:35.489Z,1043.00
2023-12-22T10:58:35.534Z,1036.00
2023-12-22T10:59:35.913Z,1015.00
2023-12-22T11:00:35.588Z,1014.00
2023-12-22T11:01:35.551Z,958.00
2023-12-22T11:02:35.683Z,942.00
2023-12-22T11:03:35.659Z,941.00
2023-12-22T11:04:35.668Z,924.00
2023-12-22T11:05:35.779Z,907.00
2023-12-22T11:06:35.812Z,904.00
2023-12-22T11:07:35.902Z,899.00
2023-12-22T11:08:35.760Z,868.00
2023-12-22T11:09:35.788Z,873.00
2023-12-22T11:10:35.812Z,858.00
2023-12-22T11:11:35.770Z,858.00
2023-12-22T11:12:35.805Z,835.00
2023-12-22T11:13:38.695Z,824.00
2023-12-22T11:14:35.823Z,810.00
2023-12-22T11:15:36.235Z,800.00
2023-12-22T11:16:35.854Z,780.00
2023-12-22T11:17:36.982Z,779.00
2023-12-22T11:18:36.240Z,759.00
2023-12-22T11:19:36.142Z,757.00
2023-12-22T11:20:35.821Z,751.00
2023-12-22T11:21:35.927Z,742.00
2023-12-22T11:22:35.856Z,748.00
2023-12-22T11:23:35.794Z,759.00
2023-12-22T11:24:35.903Z,756.00
2023-12-22T11:25:35.958Z,765.00
2023-12-22T11:26:35.899Z,770.00
2023-12-22T11:27:35.839Z,757.00
2023-12-22T11:28:36.066Z,754.00
2023-12-22T11:29:35.899Z,752.00
2023-12-22T11:30:35.890Z,755.00
2023-12-22T11:31:35.842Z,751.00
2023-12-22T11:32:35.879Z,752.00
2023-12-22T11:33:35.879Z,743.00
2023-12-22T11:34:35.884Z,744.00
2023-12-22T11:35:35.931Z,740.00
2023-12-22T11:36:35.812Z,743.00
2023-12-22T11:37:35.851Z,742.00
2023-12-22T11:38:35.840Z,738.00
2023-12-22T11:39:35.841Z,712.00
2023-12-22T11:40:35.834Z,726.00
2023-12-22T11:41:35.866Z,721.00
2023-12-22T11:42:35.886Z,710.00
2023-12-22T11:43:35.823Z,717.00
2023-12-22T11:44:35.984Z,719.00
2023-12-22T11:45:36.002Z,717.00
2023-12-22T11:46:36.035Z,708.00
2023-12-22T11:47:35.923Z,704.00
2023-12-22T11:48:35.990Z,708.00
2023-12-22T11:49:35.930Z,712.00
2023-12-22T11:50:35.845Z,707.00
2023-12-22T11:51:36.139Z,691.00
2023-12-22T11:52:35.878Z,679.00
2023-12-22T11:53:35.841Z,670.00
2023-12-22T11:54:35.801Z,667.00
2023-12-22T11:55:35.855Z,661.00
2023-12-22T11:56:35.875Z,665.00
2023-12-22T11:57:35.894Z,664.00
2023-12-22T11:58:36.012Z,664.00
2023-12-22T11:59:35.883Z,669.00
2023-12-22T12:00:35.885Z,662.00
2023-12-22T12:01:35.886Z,656.00
2023-12-22T12:02:35.842Z,661.00
2023-12-22T12:03:35.836Z,661.00
2023-12-22T12:04:36.026Z,656.00
2023-12-22T12:05:35.948Z,658.00
2023-12-22T12:06:36.158Z,658.00
2023-12-22T12:07:35.921Z,665.00
2023-12-22T12:08:35.841Z,664.00
2023-12-22T12:09:35.852Z,661.00
2023-12-22T12:10:35.894Z,665.00
2023-12-22T12:11:35.885Z,661.00
2023-12-22T12:12:35.856Z,662.00
2023-12-22T12:13:35.965Z,665.00
2023-12-22T12:14:35.917Z,665.00
2023-12-22T12:15:35.894Z,670.00
2023-12-22T12:16:35.940Z,684.00
2023-12-22T12:17:35.961Z,688.00
2023-12-22T12:18:35.980Z,694.00
2023-12-22T12:19:36.211Z,694.00
2023-12-22T12:20:36.012Z,710.00
2023-12-22T12:21:36.031Z,722.00
2023-12-22T12:22:36.059Z,729.00
2023-12-22T12:23:36.041Z,733.00
2023-12-22T12:24:36.054Z,752.00
2023-12-22T12:25:37.649Z,761.00
2023-12-22T12:26:36.122Z,773.00
2023-12-22T12:27:36.102Z,780.00
2023-12-22T12:28:36.142Z,772.00
2023-12-22T12:29:36.192Z,794.00
2023-12-22T12:30:36.206Z,789.00